sensor_id;sensor_type;location;lat;lon;timestamp;pressure;altitude;pressure_sealevel;temperature;humidity
74441;BME280;62870;54.692;25.284;2024-03-06T01:55:36;1015.2;;;26.6;16.4
74441;BME280;62870;54.692;25.284;2024-03-06T01:59:58;1015.2;;;26.6;16.4
74441;BME280;62870;54.692;25.284;2024-03-06T02:05:12;1015.3;;;26.6;16.5
74441;BME280;62870;54.692;25.284;2024-03-06T02:10:12;1015.4;;;26.7;16.5
74441;BME280;62870;54.692;25.284;2024-03-06T02:14:52;1015.4;;;26.7;16.5
74441;BME280;62870;54.692;25.284;2024-03-06T02:20:12;1015.4;;;26.7;16.3
74441;BME280;62870;54.692;25.284;2024-03-06T02:24:39;1015.4;;;26.7;16.3
74441;BME280;62870;54.692;25.284;2024-03-06T02:29:48;1015.4;;;26.7;16.3
74441;BME280;62870;54.692;25.284;2024-03-06T02:34:24;1015.5;;;26.7;16.3
74441;BME280;62870;54.692;25.284;2024-03-06T02:39:30;1015.6;;;26.7;16.4
74441;BME280;62870;54.692;25.284;2024-03-06T02:44:24;1015.6;;;26.7;16.4
74441;BME280;62870;54.692;25.284;2024-03-06T02:50:12;1015.6;;;26.7;16.2
74441;BME280;62870;54.692;25.284;2024-03-06T02:54:42;1015.6;;;26.7;16.2
74441;BME280;62870;54.692;25.284;2024-03-06T03:00:12;1015.6;;;26.7;16.2
74441;BME280;62870;54.692;25.284;2024-03-06T03:04:52;1015.6;;;26.7;16.2
74441;BME280;62870;54.692;25.284;2024-03-06T03:10:12;1015.7;;;26.7;16.3
74441;BME280;62870;54.692;25.284;2024-03-06T03:14:42;1015.7;;;26.7;16.3
74441;BME280;62870;54.692;25.284;2024-03-06T03:20:02;1015.7;;;26.8;16.3
74441;BME280;62870;54.692;25.284;2024-03-06T03:25:12;1015.8;;;26.7;16.2
74441;BME280;62870;54.692;25.284;2024-03-06T03:30:12;1015.8;;;26.7;16.2
74441;BME280;62870;54.692;25.284;2024-03-06T03:34:58;1015.8;;;26.7;16.2
74441;BME280;62870;54.692;25.284;2024-03-06T03:40:12;1015.8;;;26.8;16.3
74441;BME280;62870;54.692;25.284;2024-03-06T03:44:54;1015.8;;;26.8;16.3
74441;BME280;62870;54.692;25.284;2024-03-06T03:49:44;1015.8;;;26.8;16.3
74441;BME280;62870;54.692;25.284;2024-03-06T03:55:12;1015.9;;;26.7;16.1
74441;BME280;62870;54.692;25.284;2024-03-06T03:59:32;1015.9;;;26.7;16.1
74441;BME280;62870;54.692;25.284;2024-03-06T04:04:48;1015.9;;;26.7;16.2
74441;BME280;62870;54.692;25.284;2024-03-06T04:09:24;1016;;;26.7;16.2
74441;BME280;62870;54.692;25.284;2024-03-06T04:14:24;1016;;;26.7;16.3
74441;BME280;62870;54.692;25.284;2024-03-06T04:19:24;1016.1;;;26.7;16.3
74441;BME280;62870;54.692;25.284;2024-03-06T04:24:42;1016.1;;;26.7;16.1
74441;BME280;62870;54.692;25.284;2024-03-06T04:29:42;1016.1;;;26.7;16.1
74441;BME280;62870;54.692;25.284;2024-03-06T04:35:12;1016.3;;;26.7;16.2
74441;BME280;62870;54.692;25.284;2024-03-06T04:39:46;1016.3;;;26.7;16.2
74441;BME280;62870;54.692;25.284;2024-03-06T04:44:24;1016.3;;;26.7;16.2
74441;BME280;62870;54.692;25.284;2024-03-06T04:50:12;1016.3;;;26.8;16.2
74441;BME280;62870;54.692;25.284;2024-03-06T04:55:02;1016.3;;;26.8;16.2
74441;BME280;62870;54.692;25.284;2024-03-06T04:59:58;1016.3;;;26.7;16.2
74441;BME280;62870;54.692;25.284;2024-03-06T05:04:24;1016.3;;;26.7;16.2
74441;BME280;62870;54.692;25.284;2024-03-06T05:09:40;1016.4;;;26.7;16.2
74441;BME280;62870;54.692;25.284;2024-03-06T05:14:58;1016.5;;;26.8;16.3
74441;BME280;62870;54.692;25.284;2024-03-06T05:20:12;1016.6;;;26.8;16.2
74441;BME280;62870;54.692;25.284;2024-03-06T05:24:32;1016.6;;;26.8;16.2
74441;BME280;62870;54.692;25.284;2024-03-06T05:29:56;1016.6;;;26.8;16.2
74441;BME280;62870;54.692;25.284;2024-03-06T05:34:52;1016.6;;;26.8;16.2
74441;BME280;62870;54.692;25.284;2024-03-06T05:40:12;1016.7;;;26.8;16.3
74441;BME280;62870;54.692;25.284;2024-03-06T05:44:50;1016.7;;;26.8;16.3
74441;BME280;62870;54.692;25.284;2024-03-06T05:50:02;1016.7;;;26.9;16.3
74441;BME280;62870;54.692;25.284;2024-03-06T05:54:24;1016.7;;;26.9;16.3
74441;BME280;62870;54.692;25.284;2024-03-06T05:59:36;1016.8;;;26.9;16.3
74441;BME280;62870;54.692;25.284;2024-03-06T06:04:42;1016.8;;;26.8;16.3
74441;BME280;62870;54.692;25.284;2024-03-06T06:10:10;1016.9;;;26.9;16.4
74441;BME280;62870;54.692;25.284;2024-03-06T06:15:12;1016.9;;;26.9;16.3
74441;BME280;62870;54.692;25.284;2024-03-06T06:19:30;1016.9;;;26.9;16.3
74441;BME280;62870;54.692;25.284;2024-03-06T06:25:02;1016.9;;;26.9;16.4
74441;BME280;62870;54.692;25.284;2024-03-06T06:29:36;1016.9;;;26.9;16.3
74441;BME280;62870;54.692;25.284;2024-03-06T06:35:12;1016.9;;;26.9;16.4
74441;BME280;62870;54.692;25.284;2024-03-06T06:39:48;1016.9;;;26.9;16.4
74441;BME280;62870;54.692;25.284;2024-03-06T06:45:04;1017.1;;;27;16.5
74441;BME280;62870;54.692;25.284;2024-03-06T06:49:42;1017.1;;;27;16.5
74441;BME280;62870;54.692;25.284;2024-03-06T06:55:14;1017.1;;;27;16.4
74441;BME280;62870;54.692;25.284;2024-03-06T06:59:24;1017.1;;;27;16.4
74441;BME280;62870;54.692;25.284;2024-03-06T07:05:00;1017.1;;;27;16.4
74441;BME280;62870;54.692;25.284;2024-03-06T07:09:40;1017.2;;;27;16.4
74441;BME280;62870;54.692;25.284;2024-03-06T07:15:14;1017.3;;;27;16.5
74441;BME280;62870;54.692;25.284;2024-03-06T07:20:03;1017.3;;;27;16.5
74441;BME280;62870;54.692;25.284;2024-03-06T07:24:24;1017.4;;;27.1;16.5
74441;BME280;62870;54.692;25.284;2024-03-06T07:29:34;1017.4;;;27.1;16.4
74441;BME280;62870;54.692;25.284;2024-03-06T07:34:36;1017.4;;;27.1;16.4
74441;BME280;62870;54.692;25.284;2024-03-06T07:39:56;1017.4;;;27;16.4
74441;BME280;62870;54.692;25.284;2024-03-06T07:45:16;1017.5;;;27.1;16.5
74441;BME280;62870;54.692;25.284;2024-03-06T07:50:16;1017.5;;;27.1;16.5
74441;BME280;62870;54.692;25.284;2024-03-06T07:54:45;1017.5;;;27.1;16.5
74441;BME280;62870;54.692;25.284;2024-03-06T08:00:05;1017.6;;;27.1;16.5
74441;BME280;62870;54.692;25.284;2024-03-06T08:05:04;1017.7;;;27.1;16.5
74441;BME280;62870;54.692;25.284;2024-03-06T08:09:44;1017.7;;;27.1;16.5
74441;BME280;62870;54.692;25.284;2024-03-06T08:14:38;1017.8;;;27.1;16.5
74441;BME280;62870;54.692;25.284;2024-03-06T08:20:04;1017.8;;;27.2;16.5
74441;BME280;62870;54.692;25.284;2024-03-06T08:24:42;1017.8;;;27.2;16.5
74441;BME280;62870;54.692;25.284;2024-03-06T08:30:04;1017.8;;;27.2;16.5
74441;BME280;62870;54.692;25.284;2024-03-06T08:34:38;1017.8;;;27.2;16.5
74441;BME280;62870;54.692;25.284;2024-03-06T08:40:16;1017.8;;;27.2;16.6
74441;BME280;62870;54.692;25.284;2024-03-06T08:44:42;1017.8;;;27.2;16.6
74441;BME280;62870;54.692;25.284;2024-03-06T08:49:56;1017.8;;;27.3;16.6
74441;BME280;62870;54.692;25.284;2024-03-06T08:55:08;1017.8;;;27.4;16.5
74441;BME280;62870;54.692;25.284;2024-03-06T08:59:24;1017.8;;;27.4;16.5
74441;BME280;62870;54.692;25.284;2024-03-06T09:04:42;1017.8;;;27.4;16.5
74441;BME280;62870;54.692;25.284;2024-03-06T09:09:44;1017.7;;;27.4;16.5
74441;BME280;62870;54.692;25.284;2024-03-06T09:14:50;1017.7;;;27.4;16.5
74441;BME280;62870;54.692;25.284;2024-03-06T09:19:24;1017.7;;;27.5;16.6
74441;BME280;62870;54.692;25.284;2024-03-06T09:25:06;1017.7;;;27.5;16.6
74441;BME280;62870;54.692;25.284;2024-03-06T09:29:56;1017.7;;;27.5;16.6
74441;BME280;62870;54.692;25.284;2024-03-06T09:35:16;1017.8;;;27.5;16.6
74441;BME280;62870;54.692;25.284;2024-03-06T09:39:36;1017.8;;;27.5;16.6
74441;BME280;62870;54.692;25.284;2024-03-06T09:45:16;1017.9;;;27.6;16.6
74441;BME280;62870;54.692;25.284;2024-03-06T09:50:02;1017.9;;;27.6;16.6
74441;BME280;62870;54.692;25.284;2024-03-06T09:54:34;1017.8;;;27.6;16.5
74441;BME280;62870;54.692;25.284;2024-03-06T10:00:16;1017.9;;;27.7;16.4
74441;BME280;62870;54.692;25.284;2024-03-06T10:05:20;1017.9;;;27.7;16.4
74441;BME280;62870;54.692;25.284;2024-03-06T10:09:26;1017.9;;;27.7;16.4
74441;BME280;62870;54.692;25.284;2024-03-06T10:15:16;1017.9;;;27.8;16.4
74441;BME280;62870;54.692;25.284;2024-03-06T10:20:16;1017.9;;;27.9;16.4
74441;BME280;62870;54.692;25.284;2024-03-06T10:24:55;1017.9;;;27.9;16.4
74441;BME280;62870;54.692;25.284;2024-03-06T10:30:16;1017.8;;;28;16.3
74441;BME280;62870;54.692;25.284;2024-03-06T10:34:38;1017.8;;;28;16.3
74441;BME280;62870;54.692;25.284;2024-03-06T10:39:38;1017.8;;;28;16.3
74441;BME280;62870;54.692;25.284;2024-03-06T10:44:32;1017.8;;;28;16.3
74441;BME280;62870;54.692;25.284;2024-03-06T10:49:50;1017.8;;;28.1;16.3
74441;BME280;62870;54.692;25.284;2024-03-06T10:54:26;1017.8;;;28.2;16.3
74441;BME280;62870;54.692;25.284;2024-03-06T10:59:30;1017.8;;;28.2;16.3
74441;BME280;62870;54.692;25.284;2024-03-06T11:04:36;1017.8;;;28.3;16.2
74441;BME280;62870;54.692;25.284;2024-03-06T11:10:28;1017.8;;;28.3;16.1
74441;BME280;62870;54.692;25.284;2024-03-06T11:14:55;1017.8;;;28.3;16.1
74441;BME280;62870;54.692;25.284;2024-03-06T11:20:08;1017.8;;;28.4;16.2
74441;BME280;62870;54.692;25.284;2024-03-06T11:25:29;1017.8;;;28.5;16.2
74441;BME280;62870;54.692;25.284;2024-03-06T11:30:09;1017.8;;;28.5;16.2
74441;BME280;62870;54.692;25.284;2024-03-06T11:35:00;1017.7;;;28.5;16.1
74441;BME280;62870;54.692;25.284;2024-03-06T11:39:50;1017.7;;;28.5;16.1
74441;BME280;62870;54.692;25.284;2024-03-06T11:44:58;1017.7;;;28.5;16.2
74441;BME280;62870;54.692;25.284;2024-03-06T11:49:25;1017.6;;;28.6;16.1
74441;BME280;62870;54.692;25.284;2024-03-06T11:55:14;1017.5;;;28.7;16.1
74441;BME280;62870;54.692;25.284;2024-03-06T11:59:33;1017.5;;;28.7;16.1
74441;BME280;62870;54.692;25.284;2024-03-06T12:05:01;1017.5;;;28.8;16
74441;BME280;62870;54.692;25.284;2024-03-06T12:09:32;1017.5;;;28.8;16
74441;BME280;62870;54.692;25.284;2024-03-06T12:15:14;1017.6;;;28.8;16
74441;BME280;62870;54.692;25.284;2024-03-06T12:19:32;1017.6;;;28.8;16
74441;BME280;62870;54.692;25.284;2024-03-06T12:24:57;1017.5;;;28.9;16.1
74441;BME280;62870;54.692;25.284;2024-03-06T12:29:52;1017.5;;;28.9;16.1
74441;BME280;62870;54.692;25.284;2024-03-06T12:34:44;1017.5;;;29;16.1
74441;BME280;62870;54.692;25.284;2024-03-06T12:39:32;1017.5;;;29;16
74441;BME280;62870;54.692;25.284;2024-03-06T12:45:12;1017.4;;;29;15.9
74441;BME280;62870;54.692;25.284;2024-03-06T12:50:14;1017.4;;;29;15.9
74441;BME280;62870;54.692;25.284;2024-03-06T12:54:24;1017.4;;;29;15.9
74441;BME280;62870;54.692;25.284;2024-03-06T12:59:26;1017.4;;;29.1;15.9
74441;BME280;62870;54.692;25.284;2024-03-06T13:04:24;1017.4;;;29.1;15.9
74441;BME280;62870;54.692;25.284;2024-03-06T13:10:00;1017.3;;;29.1;15.8
74441;BME280;62870;54.692;25.284;2024-03-06T13:14:50;1017.4;;;29.1;15.8
74441;BME280;62870;54.692;25.284;2024-03-06T13:19:44;1017.3;;;29.1;15.9
74441;BME280;62870;54.692;25.284;2024-03-06T13:24:50;1017.3;;;29.2;15.9
74441;BME280;62870;54.692;25.284;2024-03-06T13:30:05;1017.3;;;29.3;15.9
74441;BME280;62870;54.692;25.284;2024-03-06T13:34:32;1017.3;;;29.3;15.9
74441;BME280;62870;54.692;25.284;2024-03-06T13:40:14;1017.3;;;29.3;15.8
74441;BME280;62870;54.692;25.284;2024-03-06T13:44:40;1017.3;;;29.3;15.8
74441;BME280;62870;54.692;25.284;2024-03-06T13:49:54;1017.2;;;29.3;15.8
74441;BME280;62870;54.692;25.284;2024-03-06T13:55:14;1017.3;;;29.3;15.8
74441;BME280;62870;54.692;25.284;2024-03-06T13:59:36;1017.3;;;29.3;15.8
74441;BME280;62870;54.692;25.284;2024-03-06T14:04:32;1017.3;;;29.4;15.8
74441;BME280;62870;54.692;25.284;2024-03-06T14:09:32;1017.3;;;29.4;15.8
74441;BME280;62870;54.692;25.284;2024-03-06T14:14:32;1017.3;;;29.4;15.7
74441;BME280;62870;54.692;25.284;2024-03-06T14:19:24;1017.3;;;29.4;15.7
74441;BME280;62870;54.692;25.284;2024-03-06T14:25:14;1017.3;;;29.7;15.5
74441;BME280;62870;54.692;25.284;2024-03-06T14:29:44;1017.3;;;29.7;15.5
74441;BME280;62870;54.692;25.284;2024-03-06T14:35:14;1017.2;;;29.4;15.7
74441;BME280;62870;54.692;25.284;2024-03-06T14:39:54;1017.2;;;29.4;15.7
74441;BME280;62870;54.692;25.284;2024-03-06T14:45:12;1017.2;;;29.1;15.7
74441;BME280;62870;54.692;25.284;2024-03-06T14:49:50;1017.2;;;29.1;15.7
74441;BME280;62870;54.692;25.284;2024-03-06T14:55:05;1017.3;;;29;15.9
74441;BME280;62870;54.692;25.284;2024-03-06T15:00:14;1017.3;;;29;15.9
74441;BME280;62870;54.692;25.284;2024-03-06T15:05:14;1017.3;;;28.9;16
74441;BME280;62870;54.692;25.284;2024-03-06T15:10:00;1017.3;;;28.9;16
74441;BME280;62870;54.692;25.284;2024-03-06T15:15:14;1017.3;;;28.8;16
74441;BME280;62870;54.692;25.284;2024-03-06T15:19:56;1017.3;;;28.8;16
74441;BME280;62870;54.692;25.284;2024-03-06T15:24:34;1017.3;;;28.7;16.1
74441;BME280;62870;54.692;25.284;2024-03-06T15:30:14;1017.4;;;28.7;16.1
74441;BME280;62870;54.692;25.284;2024-03-06T15:34:24;1017.4;;;28.7;16.1
74441;BME280;62870;54.692;25.284;2024-03-06T15:39:32;1017.4;;;28.7;16.1
74441;BME280;62870;54.692;25.284;2024-03-06T15:45:14;1017.5;;;28.5;16
74441;BME280;62870;54.692;25.284;2024-03-06T15:49:24;1017.5;;;28.5;16
74441;BME280;62870;54.692;25.284;2024-03-06T15:54:24;1017.5;;;28.5;16
74441;BME280;62870;54.692;25.284;2024-03-06T16:00:14;1017.5;;;28.5;16.1
74441;BME280;62870;54.692;25.284;2024-03-06T16:04:56;1017.5;;;28.5;16.1
74441;BME280;62870;54.692;25.284;2024-03-06T16:10:16;1017.6;;;28.4;16
74441;BME280;62870;54.692;25.284;2024-03-06T16:14:54;1017.6;;;28.4;16
74441;BME280;62870;54.692;25.284;2024-03-06T16:20:17;1017.6;;;28.3;15.9
74441;BME280;62870;54.692;25.284;2024-03-06T16:24:24;1017.6;;;28.3;15.9
74441;BME280;62870;54.692;25.284;2024-03-06T16:30:05;1017.7;;;28.3;16
74441;BME280;62870;54.692;25.284;2024-03-06T16:40:16;1017.8;;;28.3;16
74441;BME280;62870;54.692;25.284;2024-03-06T16:45:16;1017.8;;;28.2;15.9
74441;BME280;62870;54.692;25.284;2024-03-06T16:50:16;1017.9;;;28.2;15.9
74441;BME280;62870;54.692;25.284;2024-03-06T16:55:16;1017.9;;;28.1;15.9
74441;BME280;62870;54.692;25.284;2024-03-06T16:59:56;1017.9;;;28.1;15.9
74441;BME280;62870;54.692;25.284;2024-03-06T17:05:16;1017.9;;;28.2;15.9
74441;BME280;62870;54.692;25.284;2024-03-06T17:10:03;1017.9;;;28.2;15.9
74441;BME280;62870;54.692;25.284;2024-03-06T17:14:24;1017.9;;;28.2;15.9
74441;BME280;62870;54.692;25.284;2024-03-06T17:19:45;1017.9;;;28.1;15.9
74441;BME280;62870;54.692;25.284;2024-03-06T17:24:30;1017.9;;;28.1;15.9
74441;BME280;62870;54.692;25.284;2024-03-06T17:29:34;1017.9;;;28.1;15.9
74441;BME280;62870;54.692;25.284;2024-03-06T17:34:24;1017.9;;;28.1;16
74441;BME280;62870;54.692;25.284;2024-03-06T17:39:43;1017.9;;;28.1;16
74441;BME280;62870;54.692;25.284;2024-03-06T17:45:14;1017.9;;;28.1;16
74441;BME280;62870;54.692;25.284;2024-03-06T17:49:52;1017.9;;;28.1;16
74441;BME280;62870;54.692;25.284;2024-03-06T17:54:36;1018;;;28;15.9
74441;BME280;62870;54.692;25.284;2024-03-06T18:00:15;1018;;;28;15.9
74441;BME280;62870;54.692;25.284;2024-03-06T18:05:03;1018;;;28;15.9
74441;BME280;62870;54.692;25.284;2024-03-06T18:10:00;1018;;;28;15.9
74441;BME280;62870;54.692;25.284;2024-03-06T18:14:24;1018;;;28;15.9
74441;BME280;62870;54.692;25.284;2024-03-06T18:19:58;1018;;;27.9;15.7
74441;BME280;62870;54.692;25.284;2024-03-06T18:24:48;1018;;;27.9;15.7
74441;BME280;62870;54.692;25.284;2024-03-06T18:30:14;1018.1;;;27.8;15.7
74441;BME280;62870;54.692;25.284;2024-03-06T18:34:40;1018.1;;;27.8;15.7
74441;BME280;62870;54.692;25.284;2024-03-06T18:40:00;1018.1;;;27.8;15.7
74441;BME280;62870;54.692;25.284;2024-03-06T18:49:44;1018.1;;;27.8;15.7
74441;BME280;62870;54.692;25.284;2024-03-06T18:54:32;1018.1;;;27.8;15.5
74441;BME280;62870;54.692;25.284;2024-03-06T18:59:42;1018.2;;;27.7;15.5
74441;BME280;62870;54.692;25.284;2024-03-06T19:04:24;1018.2;;;27.7;15.5
74441;BME280;62870;54.692;25.284;2024-03-06T19:09:32;1018.2;;;27.7;15.6
74441;BME280;62870;54.692;25.284;2024-03-06T19:14:32;1018.2;;;27.7;15.6
74441;BME280;62870;54.692;25.284;2024-03-06T19:20:16;1018.2;;;27.6;15.3
74441;BME280;62870;54.692;25.284;2024-03-06T19:25:17;1018.3;;;27.6;15.3
74441;BME280;62870;54.692;25.284;2024-03-06T19:29:24;1018.3;;;27.6;15.3
74441;BME280;62870;54.692;25.284;2024-03-06T19:34:45;1018.3;;;27.6;15.4
74441;BME280;62870;54.692;25.284;2024-03-06T19:40:05;1018.4;;;27.6;15.4
74441;BME280;62870;54.692;25.284;2024-03-06T19:44:59;1018.4;;;27.6;15.4
74441;BME280;62870;54.692;25.284;2024-03-06T19:49:51;1018.4;;;27.6;15.4
74441;BME280;62870;54.692;25.284;2024-03-06T19:55:03;1018.4;;;27.6;15.2
74441;BME280;62870;54.692;25.284;2024-03-06T19:59:25;1018.4;;;27.6;15.2
74441;BME280;62870;54.692;25.284;2024-03-06T20:05:17;1018.4;;;27.6;15.3
74441;BME280;62870;54.692;25.284;2024-03-06T20:09:43;1018.4;;;27.6;15.3
74441;BME280;62870;54.692;25.284;2024-03-06T20:15:01;1018.3;;;27.6;15.3
74441;BME280;62870;54.692;25.284;2024-03-06T20:25:17;1018.3;;;27.6;15.3
74441;BME280;62870;54.692;25.284;2024-03-06T20:29:25;1018.3;;;27.6;15.3
74441;BME280;62870;54.692;25.284;2024-03-06T20:34:51;1018.4;;;27.6;15.3
74441;BME280;62870;54.692;25.284;2024-03-06T20:40:03;1018.4;;;27.6;15.4
74441;BME280;62870;54.692;25.284;2024-03-06T20:44:33;1018.4;;;27.7;15.4
74441;BME280;62870;54.692;25.284;2024-03-06T20:49:33;1018.3;;;27.7;15.4
74441;BME280;62870;54.692;25.284;2024-03-06T20:55:17;1018.4;;;27.6;15.5
74441;BME280;62870;54.692;25.284;2024-03-06T21:00:05;1018.4;;;27.6;15.4
74441;BME280;62870;54.692;25.284;2024-03-06T21:04:57;1018.4;;;27.6;15.4
74441;BME280;62870;54.692;25.284;2024-03-06T21:10:05;1018.4;;;27.7;15.4
74441;BME280;62870;54.692;25.284;2024-03-06T21:14:37;1018.4;;;27.7;15.4
74441;BME280;62870;54.692;25.284;2024-03-06T21:20:17;1018.5;;;27.7;15.3
74441;BME280;62870;54.692;25.284;2024-03-06T21:24:25;1018.5;;;27.7;15.3
74441;BME280;62870;54.692;25.284;2024-03-06T21:29:47;1018.5;;;27.6;15.3
74441;BME280;62870;54.692;25.284;2024-03-06T21:34:33;1018.5;;;27.6;15.3
74441;BME280;62870;54.692;25.284;2024-03-06T21:40:05;1018.5;;;27.6;15.3
74441;BME280;62870;54.692;25.284;2024-03-06T21:44:25;1018.5;;;27.6;15.3
74441;BME280;62870;54.692;25.284;2024-03-06T21:50:17;1018.4;;;27.6;15.2
74441;BME280;62870;54.692;25.284;2024-03-06T21:54:35;1018.4;;;27.6;15.2
74441;BME280;62870;54.692;25.284;2024-03-06T21:59:57;1018.4;;;27.6;15.2
74441;BME280;62870;54.692;25.284;2024-03-06T22:05:17;1018.5;;;27.6;15.2
74441;BME280;62870;54.692;25.284;2024-03-06T22:09:37;1018.5;;;27.6;15.2
74441;BME280;62870;54.692;25.284;2024-03-06T22:14:33;1018.4;;;27.6;15.3
74441;BME280;62870;54.692;25.284;2024-03-06T22:19:33;1018.4;;;27.6;15.3
74441;BME280;62870;54.692;25.284;2024-03-06T22:24:25;1018.4;;;27.6;15.1
74441;BME280;62870;54.692;25.284;2024-03-06T22:29:43;1018.4;;;27.5;15.1
74441;BME280;62870;54.692;25.284;2024-03-06T22:35:17;1018.4;;;27.5;15.2
74441;BME280;62870;54.692;25.284;2024-03-06T22:39:37;1018.4;;;27.5;15.2
74441;BME280;62870;54.692;25.284;2024-03-06T22:45:15;1018.4;;;27.6;15.2
74441;BME280;62870;54.692;25.284;2024-03-06T22:49:57;1018.4;;;27.6;15.2
74441;BME280;62870;54.692;25.284;2024-03-06T22:55:17;1018.5;;;27.5;15.1
74441;BME280;62870;54.692;25.284;2024-03-06T22:59:25;1018.5;;;27.5;15.1
74441;BME280;62870;54.692;25.284;2024-03-06T23:05:05;1018.4;;;27.5;15.1
74441;BME280;62870;54.692;25.284;2024-03-06T23:10:17;1018.4;;;27.6;15.2
74441;BME280;62870;54.692;25.284;2024-03-06T23:15:17;1018.4;;;27.6;15.2
74441;BME280;62870;54.692;25.284;2024-03-06T23:20:01;1018.4;;;27.6;15.2
74441;BME280;62870;54.692;25.284;2024-03-06T23:25:13;1018.4;;;27.5;15
74441;BME280;62870;54.692;25.284;2024-03-06T23:30:15;1018.4;;;27.5;15
74441;BME280;62870;54.692;25.284;2024-03-06T23:35:13;1018.4;;;27.5;15.1
74441;BME280;62870;54.692;25.284;2024-03-06T23:39:57;1018.4;;;27.5;15.1
74441;BME280;62870;54.692;25.284;2024-03-06T23:44:41;1018.3;;;27.5;15.1
74441;BME280;62870;54.692;25.284;2024-03-06T23:49:49;1018.3;;;27.5;15.2
74441;BME280;62870;54.692;25.284;2024-03-06T23:54:23;1018.2;;;27.5;15.1
74441;BME280;62870;54.692;25.284;2024-03-06T23:59:41;1018.2;;;27.5;15
